Time;durP1;ratioP1;P1;durP2;ratioP2;P2;SDS_P1;SDS_P2;PMS_P1;PMS_P2;Temp;Humidity;BMP_temperature;BMP_pressure;BME280_temperature;BME280_humidity;BME280_pressure;Samples;Min_cycle;Max_cycle;Signal;HPM_P1;HPM_P2
2022/12/18 00:05:46;;;;;;;39.9;20.7;;;;;;;-4.1;86.4;100210;;;;
2022/12/18 00:15:46;;;;;;;39.9;20.7;;;;;;;-4.1;86.3;100230;;;;
2022/12/18 00:26:46;;;;;;;39.9;20.7;;;;;;;-4.2;86.4;100240;;;;
2022/12/18 00:37:46;;;;;;;37.9;18.7;;;;;;;-4.1;86.3;100250;;;;
2022/12/18 00:47:46;;;;;;;37.9;18.7;;;;;;;-4.1;86.3;100260;;;;
2022/12/18 00:58:46;;;;;;;43.4;20.2;;;;;;;-4;86.5;100270;;;;
2022/12/18 01:08:46;;;;;;;43.4;20.2;;;;;;;-4;86;100280;;;;
2022/12/18 01:18:46;;;;;;;43.4;20.2;;;;;;;-4;86;100300;;;;
2022/12/18 01:28:46;;;;;;;37.2;16.9;;;;;;;-4.1;86.1;100300;;;;
2022/12/18 01:39:46;;;;;;;37.2;16.9;;;;;;;-4;86.3;100310;;;;
2022/12/18 01:49:46;;;;;;;37.2;16.9;;;;;;;-4;86.1;100330;;;;
2022/12/18 01:59:46;;;;;;;38.6;17.8;;;;;;;-4;86.1;100330;;;;
2022/12/18 02:09:46;;;;;;;38.6;17.8;;;;;;;-3.9;86.1;100340;;;;
2022/12/18 02:20:46;;;;;;;38.6;17.8;;;;;;;-3.9;85.8;100360;;;;
2022/12/18 02:30:46;;;;;;;29.7;14.6;;;;;;;-3.9;85.8;100370;;;;
2022/12/18 02:41:46;;;;;;;29.7;14.6;;;;;;;-4;85.4;100370;;;;
2022/12/18 02:52:46;;;;;;;29.7;14.6;;;;;;;-4;85.7;100390;;;;
2022/12/18 03:03:46;;;;;;;27.8;15.2;;;;;;;-4;85.7;100400;;;;
2022/12/18 03:13:46;;;;;;;27.8;15.2;;;;;;;-4;85.6;100410;;;;
2022/12/18 03:24:46;;;;;;;27.8;15.2;;;;;;;-4;85.7;100420;;;;
2022/12/18 03:34:46;;;;;;;34.8;15.2;;;;;;;-4;85.6;100420;;;;
2022/12/18 03:45:46;;;;;;;34.8;15.2;;;;;;;-3.9;85.9;100440;;;;
2022/12/18 03:55:46;;;;;;;34.8;15.2;;;;;;;-3.9;85.5;100450;;;;
2022/12/18 04:05:48;;;;;;;31.2;14.2;;;;;;;-3.9;85.6;100460;;;;
2022/12/18 04:15:46;;;;;;;31.2;14.2;;;;;;;-3.9;85.1;100470;;;;
2022/12/18 04:26:46;;;;;;;31.2;14.2;;;;;;;-3.9;85.4;100480;;;;
2022/12/18 04:36:46;;;;;;;24.7;13.4;;;;;;;-4;85.4;100490;;;;
2022/12/18 04:47:46;;;;;;;24.7;13.4;;;;;;;-4.2;85.4;100510;;;;
2022/12/18 04:58:46;;;;;;;34.5;16.1;;;;;;;-4.3;85.7;100520;;;;
2022/12/18 05:08:46;;;;;;;34.5;16.1;;;;;;;-4.2;85.9;100520;;;;
2022/12/18 05:18:46;;;;;;;34.5;16.1;;;;;;;-4.3;85.9;100530;;;;
2022/12/18 05:29:46;;;;;;;40.8;18.3;;;;;;;-4.2;85.9;100530;;;;
2022/12/18 05:39:46;;;;;;;40.8;18.3;;;;;;;-4.2;85.7;100550;;;;
2022/12/18 05:49:46;;;;;;;40.8;18.3;;;;;;;-4.1;85.5;100560;;;;
2022/12/18 05:59:46;;;;;;;30.8;16;;;;;;;-4.1;85.1;100570;;;;
2022/12/18 06:09:46;;;;;;;30.8;16;;;;;;;-4.1;85.2;100580;;;;
2022/12/18 06:20:46;;;;;;;30.8;16;;;;;;;-4.1;85.3;100600;;;;
2022/12/18 06:30:46;;;;;;;27.9;13.2;;;;;;;-3.9;85.4;100600;;;;
2022/12/18 06:41:46;;;;;;;27.9;13.2;;;;;;;-3.8;85.4;100620;;;;
2022/12/18 06:51:46;;;;;;;27.9;13.2;;;;;;;-3.7;85.4;100630;;;;
2022/12/18 07:02:46;;;;;;;32.1;13.3;;;;;;;-3.4;85.5;100640;;;;
2022/12/18 07:13:46;;;;;;;32.1;13.3;;;;;;;-3.3;85.1;100660;;;;
2022/12/18 07:24:48;;;;;;;32.1;13.3;;;;;;;-3.3;83.7;100670;;;;
2022/12/18 07:35:46;;;;;;;33.6;17.1;;;;;;;-3.2;83.3;100690;;;;
2022/12/18 07:46:46;;;;;;;33.6;17.1;;;;;;;-2.9;82.5;100700;;;;
2022/12/18 07:57:46;;;;;;;37.5;18.1;;;;;;;-2.7;81.9;100710;;;;
2022/12/18 08:07:46;;;;;;;37.5;18.1;;;;;;;-2.5;81.1;100710;;;;
2022/12/18 08:17:46;;;;;;;37.5;18.1;;;;;;;-2.3;79.7;100710;;;;
2022/12/18 08:28:46;;;;;;;33.4;17.5;;;;;;;-2.2;78.7;100720;;;;
2022/12/18 08:39:46;;;;;;;33.4;17.5;;;;;;;-1.9;78.1;100730;;;;
2022/12/18 08:50:46;;;;;;;33.4;17.5;;;;;;;-1.4;77.9;100730;;;;
2022/12/18 09:01:46;;;;;;;37.1;19;;;;;;;-1;76.9;100740;;;;
2022/12/18 09:12:46;;;;;;;37.1;19;;;;;;;-0.6;76.6;100750;;;;
2022/12/18 09:22:46;;;;;;;37.1;19;;;;;;;-0.4;74.5;100760;;;;
2022/12/18 09:32:46;;;;;;;44.6;21.1;;;;;;;-0.5;73.5;100770;;;;
2022/12/18 09:42:46;;;;;;;44.6;21.1;;;;;;;-0.1;74.5;100770;;;;
2022/12/18 09:52:46;;;;;;;44.6;21.1;;;;;;;0.2;73.8;100760;;;;
2022/12/18 10:02:46;;;;;;;41.5;22.8;;;;;;;0.2;72.1;100770;;;;
2022/12/18 10:13:46;;;;;;;41.5;22.8;;;;;;;0.4;72.5;100770;;;;
2022/12/18 10:23:46;;;;;;;41.5;22.8;;;;;;;0.6;72.5;100770;;;;
2022/12/18 10:34:46;;;;;;;45.7;26.3;;;;;;;0.3;72.5;100760;;;;
2022/12/18 10:45:46;;;;;;;45.7;26.3;;;;;;;0.2;71.2;100750;;;;
2022/12/18 10:55:46;;;;;;;45.7;26.3;;;;;;;0.5;72;100750;;;;
2022/12/18 11:06:46;;;;;;;45.1;24.2;;;;;;;0.6;71.2;100740;;;;
2022/12/18 11:16:46;;;;;;;45.1;24.2;;;;;;;0.5;70.9;100720;;;;
2022/12/18 11:27:47;;;;;;;39.2;24.2;;;;;;;0.4;71.5;100700;;;;
2022/12/18 11:37:46;;;;;;;39.2;24.2;;;;;;;0.6;70.8;100710;;;;
2022/12/18 11:48:46;;;;;;;39.2;24.2;;;;;;;0.7;71.5;100710;;;;
2022/12/18 11:59:46;;;;;;;34.3;21.8;;;;;;;0.8;70.8;100720;;;;
2022/12/18 12:10:46;;;;;;;34.3;21.8;;;;;;;0.8;69.9;100720;;;;
2022/12/18 12:20:46;;;;;;;34.3;21.8;;;;;;;0.6;69.8;100720;;;;
2022/12/18 12:31:46;;;;;;;34.3;21;;;;;;;0.6;70.6;100730;;;;
2022/12/18 12:43:18;;;;;;;34.3;21;;;;;;;0.3;69.5;100750;;;;
2022/12/18 12:52:46;;;;;;;34.3;21;;;;;;;0.2;70.5;100760;;;;
2022/12/18 13:03:47;;;;;;;26.5;15;;;;;;;0;71.3;100770;;;;
2022/12/18 13:13:46;;;;;;;26.5;15;;;;;;;-0.2;71.1;100790;;;;
2022/12/18 13:23:46;;;;;;;26.5;15;;;;;;;-0.4;71.5;100790;;;;
2022/12/18 13:33:46;;;;;;;32.5;17;;;;;;;-1;72.2;100780;;;;
2022/12/18 13:44:46;;;;;;;32.5;17;;;;;;;-1.6;72.8;100800;;;;
2022/12/18 13:54:46;;;;;;;32.5;17;;;;;;;-2;73.1;100820;;;;
2022/12/18 14:05:46;;;;;;;36.6;21;;;;;;;-2.9;74.5;100820;;;;
2022/12/18 14:15:46;;;;;;;36.6;21;;;;;;;-3.5;76.3;100830;;;;
2022/12/18 14:25:46;;;;;;;39.2;16.9;;;;;;;-4.1;78;100830;;;;
2022/12/18 14:35:49;;;;;;;39.2;16.9;;;;;;;-4.8;78.7;100840;;;;
2022/12/18 14:45:46;;;;;;;39.2;16.9;;;;;;;-5.1;80.4;100840;;;;
2022/12/18 14:56:46;;;;;;;33.7;19.3;;;;;;;-5.7;81.8;100850;;;;
2022/12/18 15:07:46;;;;;;;33.7;19.3;;;;;;;-6;83.7;100850;;;;
2022/12/18 15:17:46;;;;;;;33.7;19.3;;;;;;;-6.3;84.3;100860;;;;
2022/12/18 15:28:46;;;;;;;36.8;18.5;;;;;;;-6.5;85;100870;;;;
2022/12/18 15:38:46;;;;;;;36.8;18.5;;;;;;;-6.6;85.4;100880;;;;
2022/12/18 15:49:46;;;;;;;36.8;18.5;;;;;;;-6.9;85.6;100890;;;;
2022/12/18 15:59:46;;;;;;;32.5;20.1;;;;;;;-7.1;85.7;100900;;;;
2022/12/18 16:10:46;;;;;;;32.5;20.1;;;;;;;-7.3;85.8;100900;;;;
2022/12/18 16:20:46;;;;;;;32.5;20.1;;;;;;;-7.4;86.1;100910;;;;
2022/12/18 16:30:46;;;;;;;41.6;21.1;;;;;;;-7.6;86.4;100920;;;;
2022/12/18 16:41:46;;;;;;;41.6;21.1;;;;;;;-7.7;86.5;100930;;;;
2022/12/18 16:51:46;;;;;;;41.6;21.1;;;;;;;-7.8;86.5;100940;;;;
2022/12/18 17:02:47;;;;;;;41.6;21.3;;;;;;;-8;86.3;100950;;;;
2022/12/18 17:13:48;;;;;;;41.6;21.3;;;;;;;-8.3;86;100950;;;;
2022/12/18 17:23:46;;;;;;;41.6;21.3;;;;;;;-8.4;86;100930;;;;
2022/12/18 17:33:47;;;;;;;41.1;21.8;;;;;;;-8.5;86.3;100920;;;;
2022/12/18 17:44:46;;;;;;;41.1;21.8;;;;;;;-8.5;86.7;100900;;;;
2022/12/18 17:54:46;;;;;;;39.7;21.4;;;;;;;-8.4;87.6;100890;;;;
2022/12/18 18:05:46;;;;;;;39.7;21.4;;;;;;;-8.5;87.6;100890;;;;
2022/12/18 18:15:46;;;;;;;39.7;21.4;;;;;;;-8.6;87.5;100900;;;;
2022/12/18 18:26:47;;;;;;;35.1;20;;;;;;;-8.7;87.2;100920;;;;
2022/12/18 18:37:46;;;;;;;35.1;20;;;;;;;-9;86.6;100920;;;;
2022/12/18 18:53:22;;;;;;;;;;;;;;;;;;;;;
2022/12/18 19:03:20;;;;;;;32.4;18.7;;;;;;;-9.6;85.9;100900;;;;
2022/12/18 19:13:20;;;;;;;32.4;18.7;;;;;;;-9.8;85.8;100910;;;;
2022/12/18 19:23:20;;;;;;;45.4;28.5;;;;;;;-9.8;85.8;100930;;;;
2022/12/18 19:34:20;;;;;;;45.4;28.5;;;;;;;-9.9;86.1;100930;;;;
2022/12/18 19:44:20;;;;;;;45.4;28.5;;;;;;;-10;86.1;100950;;;;
2022/12/18 19:55:20;;;;;;;46.3;25.1;;;;;;;-10.3;85.8;100970;;;;
2022/12/18 20:05:23;;;;;;;46.3;25.1;;;;;;;-10.4;85.5;100970;;;;
2022/12/18 20:15:20;;;;;;;46.3;25.1;;;;;;;-10.6;85.1;100970;;;;
2022/12/18 20:25:20;;;;;;;69.1;40.8;;;;;;;-10.9;84.6;100970;;;;
2022/12/18 20:35:20;;;;;;;69.1;40.8;;;;;;;-10.9;85.3;100980;;;;
2022/12/18 20:46:20;;;;;;;39.2;23.8;;;;;;;-11.1;85;100960;;;;
2022/12/18 20:56:20;;;;;;;39.2;23.8;;;;;;;-11.2;84.7;100940;;;;
2022/12/18 21:06:20;;;;;;;39.2;23.8;;;;;;;-11;85.7;100950;;;;
2022/12/18 21:16:20;;;;;;;42.7;23.5;;;;;;;-10.8;86.3;100940;;;;
2022/12/18 21:27:20;;;;;;;42.7;23.5;;;;;;;-10.6;86.9;100920;;;;
2022/12/18 21:37:20;;;;;;;42.7;23.5;;;;;;;-10.6;87;100900;;;;
2022/12/18 21:48:22;;;;;;;45.7;23.3;;;;;;;-10.8;86.3;100910;;;;
2022/12/18 21:58:20;;;;;;;45.7;23.3;;;;;;;-10.9;85.9;100910;;;;
2022/12/18 22:08:20;;;;;;;45.7;23.3;;;;;;;-11;85.6;100910;;;;
2022/12/18 22:18:20;;;;;;;47.7;26.7;;;;;;;-11.2;85;100920;;;;
2022/12/18 22:39:20;;;;;;;47.7;26.7;;;;;;;-11.4;84.6;100890;;;;
2022/12/18 22:50:20;;;;;;;43.8;27;;;;;;;-11.3;84.9;100890;;;;
2022/12/18 23:00:20;;;;;;;43.8;27;;;;;;;-11.3;85.1;100890;;;;
2022/12/18 23:10:20;;;;;;;43.8;27;;;;;;;-11.4;84.9;100880;;;;
2022/12/18 23:20:20;;;;;;;40.6;23.5;;;;;;;-11.5;84.3;100890;;;;
2022/12/18 23:31:20;;;;;;;40.6;23.5;;;;;;;-11.7;83.5;100910;;;;
2022/12/18 23:41:20;;;;;;;40.6;23.5;;;;;;;-11.8;83.2;100910;;;;
2022/12/18 23:51:22;;;;;;;47.6;27.5;;;;;;;-12;82.4;100910;;;;
